Time;durP1;ratioP1;P1;durP2;ratioP2;P2;SDS_P1;SDS_P2;PMS_P1;PMS_P2;Temp;Humidity;BMP_temperature;BMP_pressure;BME280_temperature;BME280_humidity;BME280_pressure;Samples;Min_cycle;Max_cycle;Signal;HPM_P1;HPM_P2
2021/08/16 00:00:56;;;;;;;7.00;4.03;;;;;;;15.05;75.24;100853.72;2106600;28;20028;-64
2021/08/16 00:01:57;;;;;;;6.50;3.47;;;;;;;15.07;75.30;100851.88;2106568;28;20020;-66
2021/08/16 00:02:57;;;;;;;5.60;4.38;;;;;;;15.08;75.24;100856.16;2106615;28;20031;-65
2021/08/16 00:03:57;;;;;;;8.57;3.83;;;;;;;15.09;75.07;100849.13;2106673;28;20016;-64
2021/08/16 00:04:58;;;;;;;7.17;3.13;;;;;;;15.12;75.46;100855.03;2106597;28;20031;-64
2021/08/16 00:05:59;;;;;;;11.17;5.07;;;;;;;15.13;75.05;100856.75;2106643;28;20050;-64
2021/08/16 00:07:00;;;;;;;6.78;3.78;;;;;;;15.12;75.33;100855.03;2106527;28;20278;-63
2021/08/16 00:08:00;;;;;;;7.97;3.03;;;;;;;15.14;75.47;100847.06;2097541;28;20021;-64
2021/08/16 00:09:00;;;;;;;5.60;4.20;;;;;;;15.14;75.14;100852.31;2097711;28;20514;-64
2021/08/16 00:10:01;;;;;;;8.83;3.37;;;;;;;15.14;74.83;100842.66;2106545;28;20472;-64
2021/08/16 00:11:03;;;;;;;7.33;3.30;;;;;;;15.18;74.72;100849.41;2106487;28;20052;-64
2021/08/16 00:12:04;;;;;;;7.28;3.40;;;;;;;15.17;74.81;100844.25;2106596;28;20103;-64
2021/08/16 00:13:04;;;;;;;;;;;;;;;15.17;75.08;100847.75;2107039;28;20035;-63
2021/08/16 00:14:05;;;;;;;4.68;2.90;;;;;;;15.22;75.03;100843.97;2106637;28;19941;-64
2021/08/16 00:15:06;;;;;;;3.55;2.45;;;;;;;15.21;74.90;100847.53;2106638;28;20024;-65
2021/08/16 00:16:07;;;;;;;6.95;4.13;;;;;;;15.23;74.98;100849.13;2106607;28;20027;-64
2021/08/16 00:17:07;;;;;;;5.68;3.60;;;;;;;15.23;75.31;100843.03;2106523;28;20031;-65
2021/08/16 00:18:08;;;;;;;6.23;3.93;;;;;;;15.27;75.25;100839.28;2097619;28;20379;-63
2021/08/16 00:19:08;;;;;;;4.75;3.50;;;;;;;15.28;75.04;100839.19;2097588;28;20768;-63
2021/08/16 00:20:09;;;;;;;4.93;3.70;;;;;;;15.29;75.15;100845.25;2106562;28;20031;-63
2021/08/16 00:21:09;;;;;;;8.02;3.80;;;;;;;15.28;75.37;100838.31;2106592;28;20028;-64
2021/08/16 00:22:10;;;;;;;3.93;3.47;;;;;;;15.28;74.85;100847.06;2106574;28;20020;-63
2021/08/16 00:23:10;;;;;;;9.43;3.80;;;;;;;15.29;74.81;100840.00;2106675;28;20465;-64
2021/08/16 00:24:10;;;;;;;6.27;3.37;;;;;;;15.28;75.31;100840.94;2106592;28;20032;-63
2021/08/16 00:25:11;;;;;;;4.23;3.83;;;;;;;15.27;75.14;100842.75;2106485;28;20095;-64
2021/08/16 00:26:12;;;;;;;7.13;4.10;;;;;;;15.29;75.59;100845.25;2106462;28;20485;-63
2021/08/16 00:27:13;;;;;;;7.32;4.22;;;;;;;15.26;75.79;100841.03;2106533;28;20016;-64
2021/08/16 00:28:13;;;;;;;4.23;3.17;;;;;;;15.25;75.44;100838.50;2106477;28;20142;-64
2021/08/16 00:29:13;;;;;;;4.87;2.93;;;;;;;15.25;75.74;100839.34;2106510;28;20027;-64
2021/08/16 00:30:14;;;;;;;9.80;4.18;;;;;;;15.24;75.90;100842.09;2097497;28;20051;-63
2021/08/16 00:31:14;;;;;;;4.40;3.53;;;;;;;15.24;75.29;100836.81;2097406;28;20479;-64
2021/08/16 00:32:14;;;;;;;9.67;4.77;;;;;;;15.27;75.21;100839.28;2097523;28;20028;-64
2021/08/16 00:33:15;;;;;;;6.87;4.83;;;;;;;15.27;75.36;100842.75;2097563;28;20036;-64
2021/08/16 00:34:15;;;;;;;6.77;4.10;;;;;;;15.26;75.37;100832.34;2097571;28;20017;-65
2021/08/16 00:35:16;;;;;;;10.10;5.00;;;;;;;15.23;75.68;100830.75;2106434;28;20012;-64
2021/08/16 00:36:16;;;;;;;7.68;4.45;;;;;;;15.20;76.16;100830.94;2106454;28;20098;-64
2021/08/16 00:37:16;;;;;;;5.83;4.50;;;;;;;15.20;75.98;100836.19;2106476;28;20016;-63
2021/08/16 00:38:16;;;;;;;7.73;4.47;;;;;;;15.18;76.24;100838.91;2106501;28;20456;-64
2021/08/16 00:39:16;;;;;;;5.00;3.83;;;;;;;15.15;76.76;100833.84;2106549;28;20099;-64
2021/08/16 00:40:17;;;;;;;6.07;3.87;;;;;;;15.14;76.25;100826.03;2106683;28;20024;-64
2021/08/16 00:41:18;;;;;;;5.47;3.60;;;;;;;15.13;75.85;100829.63;2108043;28;20023;-63
2021/08/16 00:42:19;;;;;;;5.28;2.33;;;;;;;15.12;75.75;100827.94;2108008;28;20470;-63
2021/08/16 00:43:20;;;;;;;6.28;3.42;;;;;;;15.13;76.22;100829.63;2107865;28;20069;-64
2021/08/16 00:44:20;;;;;;;6.53;3.90;;;;;;;15.15;76.47;100828.56;2098886;28;20115;-63
2021/08/16 00:45:21;;;;;;;6.63;4.13;;;;;;;15.14;76.16;100826.03;2098981;28;20132;-63
2021/08/16 00:46:21;;;;;;;7.50;3.67;;;;;;;15.11;76.32;100824.44;2107909;28;20023;-64
2021/08/16 00:47:22;;;;;;;6.22;2.50;;;;;;;15.09;76.36;100821.06;2108009;28;20500;-64
2021/08/16 00:48:22;;;;;;;4.15;3.75;;;;;;;15.11;76.38;100826.22;2107928;28;20099;-63
2021/08/16 00:49:23;;;;;;;2.00;1.80;;;;;;;15.10;75.74;100829.81;2107983;28;20012;-64
2021/08/16 00:50:23;;;;;;;5.40;3.10;;;;;;;15.08;75.45;100827.25;2107977;28;20020;-61
2021/08/16 00:51:25;;;;;;;6.13;2.45;;;;;;;15.08;75.91;100821.19;2107915;28;20465;-63
2021/08/16 00:52:27;;;;;;;5.97;2.63;;;;;;;15.07;75.92;100825.59;2107889;28;20389;-64
2021/08/16 00:53:30;;;;;;;7.60;4.15;;;;;;;15.08;76.93;100832.50;2107836;28;20423;-64
2021/08/16 00:54:31;;;;;;;6.85;3.22;;;;;;;15.08;76.60;100827.25;2107859;28;20465;-65
2021/08/16 00:55:32;;;;;;;4.95;3.47;;;;;;;15.07;76.94;100825.59;2107769;28;20020;-64
2021/08/16 00:56:35;;;;;;;5.28;2.38;;;;;;;15.07;76.65;100820.31;2107837;28;20508;-62
2021/08/16 00:57:37;;;;;;;7.00;4.80;;;;;;;15.10;76.67;100828.03;2107846;28;20032;-63
2021/08/16 00:58:38;;;;;;;7.72;3.38;;;;;;;15.11;76.35;100826.22;2107770;28;20020;-64
2021/08/16 00:59:39;;;;;;;4.25;3.30;;;;;;;15.14;76.54;100831.28;2107801;28;20074;-62
2021/08/16 01:00:39;;;;;;;10.37;3.10;;;;;;;15.14;76.29;100828.66;2098779;28;20039;-63
2021/08/16 01:01:39;;;;;;;5.32;3.65;;;;;;;15.17;76.38;100831.97;2098802;28;20028;-62
2021/08/16 01:02:42;;;;;;;10.30;5.43;;;;;;;15.17;76.60;100831.97;2107802;28;20062;-63
2021/08/16 01:03:42;;;;;;;11.00;2.67;;;;;;;15.17;76.40;100824.09;2107792;28;20020;-64
2021/08/16 01:04:43;;;;;;;9.07;3.40;;;;;;;15.20;76.23;100836.19;2107764;28;20028;-63
2021/08/16 01:05:43;;;;;;;4.40;1.87;;;;;;;15.21;76.59;100831.75;2107821;28;20099;-63
2021/08/16 01:06:43;;;;;;;8.60;2.30;;;;;;;15.21;76.52;100837.00;2107830;28;20061;-62
2021/08/16 01:07:45;;;;;;;9.23;2.53;;;;;;;15.21;76.45;100831.75;2107670;28;20039;-65
2021/08/16 01:08:52;;;;;;;6.53;4.03;;;;;;;15.22;76.62;100833.47;2098755;28;20792;-64
2021/08/16 01:09:52;;;;;;;5.28;3.80;;;;;;;15.23;76.78;100829.88;2099587;28;20095;-64
2021/08/16 01:10:53;;;;;;;4.87;3.70;;;;;;;15.24;76.75;100842.09;2107664;28;20047;-64
2021/08/16 01:11:53;;;;;;;10.85;4.35;;;;;;;15.23;76.69;100829.88;2107736;28;20389;-66
2021/08/16 01:12:54;;;;;;;7.30;4.07;;;;;;;15.24;76.69;100842.94;2107786;28;20023;-65
2021/08/16 01:13:54;;;;;;;5.83;4.73;;;;;;;15.25;76.62;100841.13;2107674;28;20499;-65
2021/08/16 01:14:55;;;;;;;7.93;4.25;;;;;;;15.26;76.76;100845.47;2107753;28;20477;-64
2021/08/16 01:15:58;;;;;;;6.68;3.28;;;;;;;15.26;76.13;100840.22;2107750;28;20477;-64
2021/08/16 01:16:58;;;;;;;10.27;3.97;;;;;;;15.26;76.50;100834.97;2107615;28;20027;-64
2021/08/16 01:17:59;;;;;;;6.22;3.92;;;;;;;15.28;76.33;100830.44;2107694;28;20034;-64
2021/08/16 01:18:59;;;;;;;6.50;3.03;;;;;;;15.27;76.49;100834.00;2107575;28;20027;-63
2021/08/16 01:20:00;;;;;;;7.83;3.73;;;;;;;15.26;77.13;100834.97;2107636;28;20027;-62
2021/08/16 01:21:05;;;;;;;11.60;3.65;;;;;;;15.25;77.24;100834.09;2107710;28;20024;-64
2021/08/16 01:22:05;;;;;;;5.35;2.20;;;;;;;15.24;76.57;100831.56;2107690;28;20024;-64
2021/08/16 01:23:05;;;;;;;7.03;2.63;;;;;;;15.28;76.92;100835.69;2107862;28;20111;-64
2021/08/16 01:24:05;;;;;;;5.97;3.03;;;;;;;15.28;76.37;100838.31;2107666;28;20120;-63
2021/08/16 01:25:08;;;;;;;7.97;2.67;;;;;;;15.25;76.70;100834.09;2107606;28;20024;-65
2021/08/16 01:26:09;;;;;;;9.65;3.22;;;;;;;15.25;77.34;100833.25;2107602;28;20073;-63
2021/08/16 01:27:11;;;;;;;7.22;2.83;;;;;;;15.24;77.32;100842.09;2098584;28;20025;-65
2021/08/16 01:28:13;;;;;;;6.97;4.25;;;;;;;15.24;77.15;100842.09;2098855;28;20444;-64
2021/08/16 01:29:23;;;;;;;9.90;2.53;;;;;;;15.23;76.98;100829.88;2107489;28;20020;-64
2021/08/16 01:30:23;;;;;;;5.25;2.35;;;;;;;15.22;76.68;100833.47;2107551;28;20362;-65
2021/08/16 01:31:23;;;;;;;7.03;4.03;;;;;;;15.19;77.26;100840.59;2107519;28;20107;-64
2021/08/16 01:32:24;;;;;;;6.87;2.97;;;;;;;15.19;77.15;100837.94;2107463;28;20496;-63
2021/08/16 01:33:25;;;;;;;5.23;3.43;;;;;;;15.17;77.15;100841.63;2107542;28;20047;-63
2021/08/16 01:34:26;;;;;;;6.78;3.15;;;;;;;15.18;77.01;100838.91;2107625;28;20020;-61
2021/08/16 01:35:26;;;;;;;9.35;4.43;;;;;;;15.17;77.26;100829.34;2098473;28;20016;-64
2021/08/16 01:36:26;;;;;;;8.90;3.90;;;;;;;15.17;76.89;100833.75;2098704;28;20511;-64
2021/08/16 01:37:26;;;;;;;10.30;3.27;;;;;;;15.17;77.25;100825.84;2107519;28;20024;-65
2021/08/16 01:38:29;;;;;;;6.37;3.97;;;;;;;15.17;77.17;100836.38;2107549;28;20142;-65
2021/08/16 01:39:30;;;;;;;6.22;3.20;;;;;;;15.15;77.20;100833.84;2107547;28;20392;-64
2021/08/16 01:40:30;;;;;;;7.65;3.60;;;;;;;15.15;77.27;100831.19;2107487;28;20031;-64
2021/08/16 01:41:30;;;;;;;5.20;3.10;;;;;;;15.15;76.97;100833.84;2107592;28;20065;-64
2021/08/16 01:42:31;;;;;;;8.53;3.60;;;;;;;15.14;77.28;100832.16;2107520;28;20069;-66
2021/08/16 01:43:32;;;;;;;2.43;2.23;;;;;;;15.15;77.70;100830.34;2107441;28;20020;-63
2021/08/16 01:44:32;;;;;;;9.02;4.10;;;;;;;15.13;77.70;100833.09;2107429;28;20028;-62
2021/08/16 01:45:32;;;;;;;6.80;3.33;;;;;;;15.12;77.40;100834.00;2098426;28;20028;-64
2021/08/16 01:46:32;;;;;;;5.60;2.33;;;;;;;15.12;77.24;100834.00;2090088;28;20035;-64
2021/08/16 01:47:32;;;;;;;5.60;2.10;;;;;;;15.11;77.93;100832.34;2098415;28;20067;-63
2021/08/16 01:48:33;;;;;;;7.40;2.80;;;;;;;15.13;77.78;100837.50;2090161;28;20037;-64
2021/08/16 01:49:33;;;;;;;8.17;2.87;;;;;;;15.13;77.51;100837.50;2098484;28;20077;-63
2021/08/16 01:50:34;;;;;;;6.03;4.00;;;;;;;15.12;77.22;100839.28;2107362;28;20086;-64
2021/08/16 01:51:35;;;;;;;6.35;2.90;;;;;;;15.15;77.19;100832.97;2107147;28;20027;-65
2021/08/16 01:52:35;;;;;;;6.72;3.55;;;;;;;15.14;77.33;100837.41;2107413;28;20031;-65
2021/08/16 01:53:36;;;;;;;6.43;4.32;;;;;;;15.13;77.10;100840.97;2107425;28;20032;-63
2021/08/16 01:54:36;;;;;;;6.33;4.60;;;;;;;15.14;76.80;100836.56;2107448;28;20023;-64
2021/08/16 01:55:36;;;;;;;4.33;3.77;;;;;;;15.13;76.90;100833.09;2098318;28;20031;-64
2021/08/16 01:56:38;;;;;;;7.93;4.20;;;;;;;15.13;78.11;100830.47;2098420;28;20020;-64
2021/08/16 01:57:38;;;;;;;6.55;4.35;;;;;;;15.11;77.43;100827.06;2107310;28;20099;-65
2021/08/16 01:58:38;;;;;;;7.83;3.63;;;;;;;15.12;77.82;100831.38;2107343;28;20362;-64
2021/08/16 01:59:38;;;;;;;12.13;5.53;;;;;;;15.10;78.45;100835.91;2107326;28;20152;-63
2021/08/16 02:00:39;;;;;;;5.70;3.20;;;;;;;15.10;78.20;100832.44;2107340;28;20093;-65
2021/08/16 02:01:39;;;;;;;8.27;4.83;;;;;;;15.08;78.26;100829.88;2107286;28;20383;-64
2021/08/16 02:02:40;;;;;;;8.32;3.13;;;;;;;15.07;77.97;100830.84;2107353;28;20081;-64
2021/08/16 02:03:40;;;;;;;9.52;2.97;;;;;;;15.06;77.79;100823.91;2098249;28;20115;-64
2021/08/16 02:04:41;;;;;;;8.07;4.43;;;;;;;15.05;78.45;100828.31;2098419;28;20016;-65
2021/08/16 02:05:41;;;;;;;7.13;5.37;;;;;;;15.05;78.55;100830.94;2107175;28;20490;-63
2021/08/16 02:06:42;;;;;;;7.72;4.78;;;;;;;15.06;78.12;100826.53;2098259;28;20478;-63
2021/08/16 02:07:42;;;;;;;8.30;4.38;;;;;;;15.06;78.21;100823.91;2089979;28;20031;-64
2021/08/16 02:08:42;;;;;;;7.97;4.13;;;;;;;15.06;77.94;100823.91;2098342;28;20024;-63
2021/08/16 02:09:43;;;;;;;6.87;4.47;;;;;;;15.06;77.68;100818.66;2107312;28;20070;-64
2021/08/16 02:10:43;;;;;;;7.83;4.77;;;;;;;15.05;78.12;100827.44;2098097;28;20075;-62
2021/08/16 02:11:43;;;;;;;8.07;4.30;;;;;;;15.05;78.25;100824.81;2089795;28;20048;-61
2021/08/16 02:12:43;;;;;;;7.13;3.60;;;;;;;15.04;77.99;100828.38;2098268;28;20029;-64
2021/08/16 02:13:44;;;;;;;8.63;5.33;;;;;;;15.05;78.29;100822.19;2107103;28;20495;-62
2021/08/16 02:14:44;;;;;;;6.00;4.75;;;;;;;15.05;78.29;100819.56;2107275;28;20384;-62
2021/08/16 02:15:44;;;;;;;6.40;3.70;;;;;;;15.06;78.08;100829.97;2107271;28;20027;-63
2021/08/16 02:16:46;;;;;;;8.57;4.50;;;;;;;15.06;78.66;100823.91;2107200;28;20023;-65
2021/08/16 02:17:46;;;;;;;9.70;4.90;;;;;;;15.06;78.39;100826.53;2107159;28;20024;-63
2021/08/16 02:18:47;;;;;;;7.87;4.13;;;;;;;15.05;78.62;100827.44;2107176;28;20415;-63
2021/08/16 02:19:48;;;;;;;7.28;4.53;;;;;;;15.04;78.42;100821.38;2107217;28;20020;-63
2021/08/16 02:20:48;;;;;;;8.05;3.95;;;;;;;15.03;77.91;100824.09;2107165;28;20056;-63
2021/08/16 02:21:48;;;;;;;6.73;4.40;;;;;;;15.04;78.15;100821.38;2107195;28;20491;-63
2021/08/16 02:22:48;;;;;;;7.90;4.57;;;;;;;15.04;78.00;100817.88;2107336;28;20111;-63
2021/08/16 02:23:49;;;;;;;6.33;4.80;;;;;;;15.02;78.83;100817.16;2098068;28;20033;-64
2021/08/16 02:24:49;;;;;;;5.37;4.37;;;;;;;15.03;78.94;100816.19;2098154;28;20025;-63
2021/08/16 02:25:50;;;;;;;5.40;4.50;;;;;;;15.01;78.59;100816.28;2107192;28;20031;-64
2021/08/16 02:26:50;;;;;;;5.82;3.40;;;;;;;15.03;78.85;100821.47;2107055;28;20016;-63
2021/08/16 02:27:53;;;;;;;7.53;4.53;;;;;;;15.02;78.96;100822.41;2107175;28;20030;-63
2021/08/16 02:28:53;;;;;;;6.28;3.75;;;;;;;15.00;78.38;100819.00;2107061;28;20492;-63
2021/08/16 02:29:53;;;;;;;9.03;4.87;;;;;;;15.02;78.26;100811.88;2107126;28;20028;-64
2021/08/16 02:30:54;;;;;;;6.47;4.53;;;;;;;15.02;78.73;100811.88;2107206;28;20103;-65
2021/08/16 02:31:54;;;;;;;6.15;4.45;;;;;;;15.03;78.49;100813.56;2107008;28;20060;-62
2021/08/16 02:32:54;;;;;;;7.50;4.80;;;;;;;15.03;78.63;100813.56;2098054;28;20032;-63
2021/08/16 02:33:55;;;;;;;8.13;4.20;;;;;;;15.02;78.75;100806.63;2098155;28;20039;-63
2021/08/16 02:34:55;;;;;;;9.07;3.40;;;;;;;15.01;78.85;100804.94;2107129;28;20028;-64
2021/08/16 02:35:55;;;;;;;5.60;3.83;;;;;;;15.01;78.85;100811.03;2107061;28;20028;-61
2021/08/16 02:36:56;;;;;;;8.67;4.70;;;;;;;15.02;78.85;100814.53;2107143;28;20024;-62
2021/08/16 02:37:56;;;;;;;7.82;4.80;;;;;;;15.00;78.71;100811.13;2107168;28;20372;-63
2021/08/16 02:38:56;;;;;;;7.73;4.03;;;;;;;15.00;79.02;100822.50;2107084;28;20036;-64
2021/08/16 02:39:57;;;;;;;5.90;4.40;;;;;;;15.01;78.97;100815.44;2107056;28;20059;-62
2021/08/16 02:40:57;;;;;;;7.43;3.73;;;;;;;15.03;78.37;100816.19;2107070;28;20032;-64
2021/08/16 02:41:57;;;;;;;5.30;4.80;;;;;;;15.02;78.79;100814.53;2107070;28;20076;-63
2021/08/16 02:42:58;;;;;;;5.67;4.73;;;;;;;15.02;78.68;100815.34;2107060;28;20077;-64
2021/08/16 02:43:58;;;;;;;10.80;4.90;;;;;;;15.02;79.09;100812.72;2106960;28;20028;-62
2021/08/16 02:44:58;;;;;;;7.67;5.43;;;;;;;15.03;79.22;100818.81;2106881;28;20016;-63
2021/08/16 02:45:58;;;;;;;6.57;5.33;;;;;;;15.03;79.05;100818.81;2107006;28;20092;-63
2021/08/16 02:46:59;;;;;;;7.63;4.53;;;;;;;15.02;79.25;100817.16;2106928;28;20537;-64
2021/08/16 02:47:59;;;;;;;8.02;4.97;;;;;;;15.02;78.99;100817.16;2107024;28;20150;-65
2021/08/16 02:49:00;;;;;;;9.13;4.93;;;;;;;15.02;79.05;100809.25;2106947;28;20031;-64
2021/08/16 02:50:00;;;;;;;9.50;4.85;;;;;;;15.01;80.08;100807.56;2106956;28;20024;-63
2021/08/16 02:51:00;;;;;;;9.27;5.73;;;;;;;15.00;79.88;100803.25;2107028;28;20028;-62
2021/08/16 02:52:03;;;;;;;7.53;5.10;;;;;;;15.00;79.26;100808.50;2106990;28;20016;-64
2021/08/16 02:53:03;;;;;;;14.30;5.47;;;;;;;14.99;79.79;100802.38;2107115;28;20111;-63
2021/08/16 02:54:03;;;;;;;10.37;5.43;;;;;;;15.00;79.72;100803.25;2107015;28;20028;-62
2021/08/16 02:55:04;;;;;;;9.63;5.43;;;;;;;15.00;79.65;100804.09;2097979;28;20078;-64
2021/08/16 02:56:04;;;;;;;9.40;5.43;;;;;;;15.00;79.40;100804.09;2098045;28;20611;-64
2021/08/16 02:57:05;;;;;;;8.87;4.90;;;;;;;15.00;79.76;100808.50;2106910;28;20456;-64
2021/08/16 02:58:05;;;;;;;6.60;5.10;;;;;;;15.00;79.83;100801.47;2106943;28;20032;-63
2021/08/16 02:59:05;;;;;;;6.47;4.47;;;;;;;15.02;79.58;100798.75;2106862;28;20057;-63
2021/08/16 03:00:07;;;;;;;7.67;5.43;;;;;;;15.00;80.16;100795.38;2106894;28;20027;-64
2021/08/16 03:01:07;;;;;;;7.93;4.70;;;;;;;15.01;79.73;100800.53;2106926;28;20081;-63
2021/08/16 03:02:08;;;;;;;11.27;5.17;;;;;;;15.02;79.78;100798.75;2106900;28;20072;-63
2021/08/16 03:03:08;;;;;;;13.55;6.22;;;;;;;15.00;80.49;100798.00;2106331;28;20516;-63
2021/08/16 03:04:08;;;;;;;7.43;6.00;;;;;;;15.01;80.43;100794.41;2097819;28;20127;-63
2021/08/16 03:05:10;;;;;;;7.53;5.77;;;;;;;15.01;79.92;100797.03;2097950;28;20020;-64
2021/08/16 03:06:11;;;;;;;9.80;5.63;;;;;;;15.01;80.59;100802.28;2106889;28;20054;-64
2021/08/16 03:07:11;;;;;;;9.25;6.28;;;;;;;15.01;80.00;100795.28;2106899;28;20028;-63
2021/08/16 03:08:12;;;;;;;6.53;4.97;;;;;;;15.02;80.47;100794.31;2107027;28;20020;-63
2021/08/16 03:09:12;;;;;;;6.78;5.07;;;;;;;15.03;79.89;100797.81;2106782;28;20499;-62
2021/08/16 03:10:13;;;;;;;8.07;5.00;;;;;;;15.04;79.83;100788.97;2106834;28;20028;-64
2021/08/16 03:11:13;;;;;;;9.13;5.65;;;;;;;15.04;80.15;100792.47;2106774;28;20035;-64
2021/08/16 03:12:14;;;;;;;9.67;5.73;;;;;;;15.04;80.28;100791.59;2106850;28;20016;-63
2021/08/16 03:13:14;;;;;;;9.32;6.07;;;;;;;15.04;79.96;100794.22;2106830;28;20028;-62
2021/08/16 03:14:14;;;;;;;9.20;6.77;;;;;;;15.04;80.02;100788.97;2106907;28;20113;-64
2021/08/16 03:15:15;;;;;;;10.27;5.70;;;;;;;15.04;80.96;100791.59;2106828;28;20024;-63
2021/08/16 03:16:15;;;;;;;10.18;6.72;;;;;;;15.03;80.41;100792.53;2106719;28;20499;-64
2021/08/16 03:17:15;;;;;;;5.80;5.07;;;;;;;15.04;80.12;100795.09;2106827;28;20020;-64
2021/08/16 03:18:16;;;;;;;10.40;6.20;;;;;;;15.03;80.78;100795.19;2106817;28;20078;-63
2021/08/16 03:19:16;;;;;;;7.87;5.93;;;;;;;15.03;81.01;100793.41;2097790;28;20499;-63
2021/08/16 03:20:17;;;;;;;10.47;7.17;;;;;;;15.03;80.66;100793.41;2097865;28;20016;-62
2021/08/16 03:21:18;;;;;;;12.07;5.78;;;;;;;15.03;80.54;100792.53;2106728;28;20020;-63
2021/08/16 03:22:18;;;;;;;9.27;5.57;;;;;;;15.04;80.66;100800.34;2106739;28;20107;-62
2021/08/16 03:23:20;;;;;;;8.87;6.63;;;;;;;15.05;80.71;100791.50;2106846;28;20273;-63
2021/08/16 03:24:20;;;;;;;8.68;5.80;;;;;;;15.05;80.52;100790.66;2106765;28;20077;-63
2021/08/16 03:25:20;;;;;;;11.77;6.47;;;;;;;15.06;80.55;100792.38;2097695;28;20110;-62
2021/08/16 03:26:20;;;;;;;10.17;7.07;;;;;;;15.07;80.54;100796.66;2097926;28;20492;-63
2021/08/16 03:27:21;;;;;;;6.70;5.27;;;;;;;15.09;80.57;100796.56;2097665;28;20032;-62
2021/08/16 03:28:21;;;;;;;8.02;6.55;;;;;;;15.08;80.18;100789.66;2097889;28;20456;-64
2021/08/16 03:29:22;;;;;;;9.37;6.77;;;;;;;15.10;80.26;100796.50;2097765;28;20017;-63
2021/08/16 03:30:22;;;;;;;8.97;6.57;;;;;;;15.11;80.62;100799.94;2097939;28;20028;-62
2021/08/16 03:31:22;;;;;;;9.70;5.70;;;;;;;15.10;80.35;100793.00;2106666;28;20099;-62
2021/08/16 03:32:22;;;;;;;9.53;6.77;;;;;;;15.12;80.50;100801.66;2106799;28;20028;-64
2021/08/16 03:33:23;;;;;;;11.33;6.53;;;;;;;15.12;80.59;100797.22;2097776;28;20028;-63
2021/08/16 03:34:23;;;;;;;8.00;6.37;;;;;;;15.11;80.95;100799.94;2097773;28;20036;-62
2021/08/16 03:35:23;;;;;;;13.10;6.10;;;;;;;15.09;81.03;100792.16;2106704;28;20526;-62
2021/08/16 03:36:23;;;;;;;7.25;6.18;;;;;;;15.10;80.95;100799.13;2097775;28;20446;-63
2021/08/16 03:37:24;;;;;;;9.83;5.47;;;;;;;15.12;80.60;100807.72;2097781;28;20021;-60
2021/08/16 03:38:24;;;;;;;9.57;6.17;;;;;;;15.12;80.59;100801.66;2106760;28;20032;-62
2021/08/16 03:39:24;;;;;;;7.87;5.03;;;;;;;15.12;80.77;100805.09;2097723;28;20027;-62
2021/08/16 03:40:25;;;;;;;11.20;6.13;;;;;;;15.12;81.56;100805.09;2097806;28;20073;-64
2021/08/16 03:41:25;;;;;;;10.03;6.83;;;;;;;15.10;80.93;100804.38;2106687;28;20553;-63
2021/08/16 03:42:25;;;;;;;11.43;7.97;;;;;;;15.08;81.57;100800.97;2106734;28;20024;-62
2021/08/16 03:43:25;;;;;;;8.30;6.53;;;;;;;15.08;81.38;100798.34;2106650;28;20362;-64
2021/08/16 03:44:26;;;;;;;10.50;5.80;;;;;;;15.07;81.99;100804.56;2106762;28;20020;-65
2021/08/16 03:45:26;;;;;;;11.27;7.43;;;;;;;15.08;81.78;100803.59;2106623;28;20020;-64
2021/08/16 03:46:26;;;;;;;7.88;3.33;;;;;;;15.06;81.13;100801.06;2106577;28;20019;-66
2021/08/16 03:47:27;;;;;;;5.17;4.13;;;;;;;15.09;80.68;100801.84;2106703;28;20107;-63
2021/08/16 03:48:27;;;;;;;9.70;5.53;;;;;;;15.10;81.31;100804.38;2106734;28;20024;-62
2021/08/16 03:49:27;;;;;;;7.43;5.40;;;;;;;15.10;81.45;100804.38;2097648;28;20029;-63
2021/08/16 03:50:28;;;;;;;9.70;5.50;;;;;;;15.10;81.62;100804.38;2097808;28;20059;-63
2021/08/16 03:51:28;;;;;;;7.83;4.77;;;;;;;15.11;81.00;100806.06;2106599;28;20077;-65
2021/08/16 03:52:28;;;;;;;10.20;5.50;;;;;;;15.12;81.56;100802.47;2106722;28;20077;-63
2021/08/16 03:53:28;;;;;;;9.10;5.47;;;;;;;15.11;81.53;100806.06;2106635;28;20063;-63
2021/08/16 03:54:29;;;;;;;10.87;5.33;;;;;;;15.11;81.60;100803.44;2106639;28;20016;-64
2021/08/16 03:55:29;;;;;;;8.30;5.60;;;;;;;15.11;81.46;100806.06;2106672;28;20016;-65
2021/08/16 03:56:29;;;;;;;7.80;5.37;;;;;;;15.11;81.32;100800.78;2097642;28;20094;-64
2021/08/16 03:57:29;;;;;;;7.37;3.57;;;;;;;15.12;81.10;100801.66;2097723;28;20024;-64
2021/08/16 03:58:30;;;;;;;10.73;4.17;;;;;;;15.10;81.98;100796.50;2106551;28;20103;-65
2021/08/16 03:59:30;;;;;;;6.77;4.17;;;;;;;15.10;81.70;100798.25;2106664;28;20019;-65
2021/08/16 04:00:31;;;;;;;6.40;4.23;;;;;;;15.11;81.60;100800.78;2106787;28;20099;-64
2021/08/16 04:01:31;;;;;;;7.68;5.68;;;;;;;15.12;81.25;100805.09;2106564;28;20048;-64
2021/08/16 04:02:31;;;;;;;11.00;6.87;;;;;;;15.13;81.69;100798.94;2106724;28;20069;-65
2021/08/16 04:03:32;;;;;;;6.88;4.47;;;;;;;15.13;81.68;100798.06;2106696;28;20027;-64
2021/08/16 04:04:32;;;;;;;6.70;4.57;;;;;;;15.13;81.58;100801.56;2106605;28;20043;-64
2021/08/16 04:05:32;;;;;;;7.87;3.57;;;;;;;15.13;81.69;100808.59;2106604;28;20048;-64
2021/08/16 04:06:32;;;;;;;6.77;6.10;;;;;;;15.14;81.56;100805.88;2097611;28;20393;-63
2021/08/16 04:07:33;;;;;;;9.23;5.03;;;;;;;15.14;81.47;100797.13;2097650;28;20028;-63
2021/08/16 04:08:33;;;;;;;6.97;3.80;;;;;;;15.16;81.47;100803.97;2106591;28;20044;-63
2021/08/16 04:09:33;;;;;;;13.30;4.45;;;;;;;15.16;81.01;100806.59;2106586;28;20032;-65
2021/08/16 04:10:34;;;;;;;14.73;5.50;;;;;;;15.18;81.06;100802.09;2106621;28;20047;-63
2021/08/16 04:11:34;;;;;;;6.20;3.93;;;;;;;15.17;81.14;100800.44;2106477;28;20062;-63
2021/08/16 04:12:34;;;;;;;10.00;4.60;;;;;;;15.17;80.64;100800.44;2106635;28;20055;-64
2021/08/16 04:13:34;;;;;;;8.27;5.63;;;;;;;15.18;81.51;100802.09;2106519;28;20389;-64
2021/08/16 04:14:35;;;;;;;8.77;6.57;;;;;;;15.17;81.90;100792.53;2098204;28;20453;-62
2021/08/16 04:15:35;;;;;;;12.00;7.13;;;;;;;15.18;81.10;100799.47;2099234;28;20013;-64
2021/08/16 04:16:35;;;;;;;7.67;6.17;;;;;;;15.19;81.06;100798.53;2108103;28;20024;-63
2021/08/16 04:17:36;;;;;;;7.70;5.23;;;;;;;15.19;81.40;100801.16;2099102;28;20029;-64
2021/08/16 04:18:37;;;;;;;10.77;4.97;;;;;;;15.19;81.18;100798.53;2099212;28;20278;-63
2021/08/16 04:19:37;;;;;;;8.57;4.18;;;;;;;15.18;80.83;100799.47;2108175;28;20534;-63
2021/08/16 04:20:37;;;;;;;12.33;4.83;;;;;;;15.20;81.12;100804.63;2108228;28;20020;-63
2021/08/16 04:21:37;;;;;;;9.60;4.40;;;;;;;15.19;82.30;100803.78;2099106;28;20058;-61
2021/08/16 04:22:38;;;;;;;6.23;3.87;;;;;;;15.18;81.65;100796.84;2099119;28;20028;-62
2021/08/16 04:23:38;;;;;;;9.67;4.03;;;;;;;15.19;82.05;100795.91;2108090;28;20115;-62
2021/08/16 04:24:39;;;;;;;9.97;4.97;;;;;;;15.20;82.64;100802.00;2108213;28;20055;-62
2021/08/16 04:25:39;;;;;;;10.18;4.78;;;;;;;15.19;82.23;100792.41;2108124;28;20028;-63
2021/08/16 04:26:39;;;;;;;6.37;5.10;;;;;;;15.18;81.54;100788.97;2108168;28;20020;-63
2021/08/16 04:27:40;;;;;;;5.63;5.07;;;;;;;15.21;81.78;100805.47;2107941;28;20032;-64
2021/08/16 04:28:41;;;;;;;11.23;5.80;;;;;;;15.22;81.92;100804.56;2108061;28;20511;-63
2021/08/16 04:29:41;;;;;;;10.50;5.40;;;;;;;15.19;81.42;100795.03;2099022;28;20111;-62
2021/08/16 04:30:42;;;;;;;8.20;4.43;;;;;;;15.23;81.70;100790.47;2099136;28;20509;-64
2021/08/16 04:31:42;;;;;;;8.33;4.83;;;;;;;15.22;81.71;100791.41;2098986;28;20562;-63
2021/08/16 04:32:43;;;;;;;10.40;4.60;;;;;;;15.22;81.49;100786.16;2099128;28;20103;-63
2021/08/16 04:33:44;;;;;;;9.98;6.55;;;;;;;15.21;81.56;100794.94;2108024;28;20058;-62
2021/08/16 04:34:44;;;;;;;8.93;5.00;;;;;;;15.21;81.50;100784.44;2108014;28;20039;-61
2021/08/16 04:35:44;;;;;;;10.65;5.15;;;;;;;15.22;81.28;100786.16;2098931;28;20067;-63
2021/08/16 04:36:45;;;;;;;8.03;6.23;;;;;;;15.23;81.60;100786.06;2099182;28;20058;-62
2021/08/16 04:37:45;;;;;;;11.52;5.93;;;;;;;15.24;81.79;100785.09;2108150;28;20503;-63
2021/08/16 04:38:46;;;;;;;11.57;6.50;;;;;;;15.24;82.47;100787.72;2108006;28;20473;-62
2021/08/16 04:39:46;;;;;;;11.07;6.83;;;;;;;15.22;83.08;100780.88;2108139;28;20069;-63
2021/08/16 04:40:47;;;;;;;10.10;5.40;;;;;;;15.21;82.87;100782.66;2108181;28;20024;-64
2021/08/16 04:41:50;;;;;;;9.43;6.00;;;;;;;15.23;82.37;100795.72;2108098;28;20027;-63